Terminal Aerodrome Forecast
Issued by NWS Pendleton, OR

Home | Current Version | Previous Version | Text Only | Print | Product List | Glossary On
Versions: 1 2 3 4 5 6 7 8 9 10 11 12 13 14 15 16 17
000
FTUS46 KPDT 201100
TAFPDT
TAF
KPDT 201120Z 2012/2112 16008KT P6SM SCT200
     FM201700 28007KT P6SM SCT150
     FM202300 02008KT P6SM BKN200
     FM210400 VRB05KT P6SM BKN150
     FM210900 13006KT P6SM BKN120=

USA.gov is the U.S. government's official web portal to all federal, state and local government web resources and services.